createdAt,value
2019-03-30T00:01:50.531Z,102245.48
2019-03-30T00:04:19.838Z,102244.82
2019-03-30T00:06:48.862Z,102245.18
2019-03-30T00:09:17.851Z,102244.32
2019-03-30T00:11:46.939Z,102237.36
2019-03-30T00:14:15.946Z,102238.54
2019-03-30T00:16:44.967Z,102241.25
2019-03-30T00:19:14.099Z,102236.55
2019-03-30T00:21:43.235Z,102234.84
2019-03-30T00:24:12.237Z,102232.80
2019-03-30T00:26:41.348Z,102224.97
2019-03-30T00:29:10.351Z,102223.48
2019-03-30T00:31:39.368Z,102218.39
2019-03-30T00:34:08.501Z,102215.16
2019-03-30T00:36:37.597Z,102213.61
2019-03-30T00:39:06.919Z,102218.97
2019-03-30T00:41:36.029Z,102212.17
2019-03-30T00:44:05.198Z,102211.31
2019-03-30T00:46:34.328Z,102205.91
2019-03-30T00:49:03.307Z,102205.21
2019-03-30T00:51:32.367Z,102205.57
2019-03-30T00:54:01.371Z,102198.44
2019-03-30T00:56:30.465Z,102199.60
2019-03-30T00:58:59.496Z,102191.97
2019-03-30T01:01:28.491Z,102194.84
2019-03-30T01:03:57.505Z,102196.37
2019-03-30T01:06:26.530Z,102194.33
2019-03-30T01:08:55.551Z,102194.82
2019-03-30T01:11:24.572Z,102192.41
2019-03-30T01:13:53.577Z,102193.41
2019-03-30T01:16:22.661Z,102187.47
2019-03-30T01:18:51.679Z,102185.23
2019-03-30T01:21:20.695Z,102175.20
2019-03-30T01:23:49.747Z,102177.08
2019-03-30T01:26:18.716Z,102174.97
2019-03-30T01:28:47.704Z,102173.45
2019-03-30T01:31:16.715Z,102168.34
2019-03-30T01:33:45.734Z,102167.09
2019-03-30T01:36:14.739Z,102167.26
2019-03-30T01:38:43.766Z,102168.25
2019-03-30T01:41:12.756Z,102170.92
2019-03-30T01:43:41.735Z,102174.42
2019-03-30T01:46:10.730Z,102166.11
2019-03-30T01:48:39.729Z,102168.98
2019-03-30T01:51:08.739Z,102164.06
2019-03-30T01:53:37.753Z,102162.05
2019-03-30T01:56:06.868Z,102160.00
2019-03-30T01:58:35.932Z,102157.10
2019-03-30T02:01:05.207Z,102157.07
2019-03-30T02:03:34.213Z,102155.52
2019-03-30T02:06:03.525Z,102160.27
2019-03-30T02:08:32.887Z,102157.56
2019-03-30T02:11:01.986Z,102155.87
2019-03-30T02:13:31.075Z,102158.23
2019-03-30T02:16:00.145Z,102154.83
2019-03-30T02:18:29.137Z,102151.63
2019-03-30T02:20:58.163Z,102148.55
2019-03-30T02:23:27.478Z,102146.02
2019-03-30T02:25:56.469Z,102139.91
2019-03-30T02:28:25.475Z,102138.20
2019-03-30T02:30:54.486Z,102132.45
2019-03-30T02:33:23.499Z,102130.73
2019-03-30T02:35:52.570Z,102127.34
2019-03-30T02:38:21.581Z,102121.93
2019-03-30T02:40:50.671Z,102120.58
2019-03-30T02:43:19.668Z,102115.30
2019-03-30T02:45:48.745Z,102121.53
2019-03-30T02:48:17.755Z,102115.13
2019-03-30T02:50:50.396Z,102115.44
2019-03-30T02:53:17.563Z,102114.08
2019-03-30T02:55:46.672Z,102110.62
2019-03-30T02:58:15.765Z,102112.30
2019-03-30T03:00:44.898Z,102107.45
2019-03-30T03:03:14.141Z,102106.55
2019-03-30T03:05:43.269Z,102107.20
2019-03-30T03:08:12.516Z,102103.98
2019-03-30T03:10:41.518Z,102105.03
2019-03-30T03:13:10.554Z,102101.67
2019-03-30T03:15:39.535Z,102101.84
2019-03-30T03:18:08.543Z,102102.00
2019-03-30T03:20:37.525Z,102093.69
2019-03-30T03:23:06.537Z,102084.23
2019-03-30T03:25:35.534Z,102086.73
2019-03-30T03:28:04.543Z,102088.74
2019-03-30T03:30:33.547Z,102088.58
2019-03-30T03:33:02.568Z,102084.03
2019-03-30T03:35:31.571Z,102082.67
2019-03-30T03:38:00.600Z,102073.05
2019-03-30T03:40:29.691Z,102072.55
2019-03-30T03:42:59.073Z,102069.81
2019-03-30T03:45:28.067Z,102068.39
2019-03-30T03:47:57.183Z,102065.36
2019-03-30T03:50:58.010Z,102067.20
2019-03-30T03:53:27.104Z,102070.08
2019-03-30T03:55:56.108Z,102061.11
2019-03-30T03:58:26.915Z,102057.55
2019-03-30T04:00:55.931Z,102050.59
2019-03-30T04:03:24.922Z,102054.48
2019-03-30T04:05:55.922Z,102046.89
2019-03-30T04:08:24.946Z,102052.63
2019-03-30T04:10:53.998Z,102047.36
2019-03-30T04:13:23.017Z,102050.47
2019-03-30T04:15:52.038Z,102049.33
2019-03-30T04:18:21.093Z,102044.13
2019-03-30T04:20:50.222Z,102029.73
2019-03-30T04:23:19.611Z,102026.20
2019-03-30T04:25:48.640Z,102028.05
2019-03-30T04:28:17.731Z,102024.64
2019-03-30T04:30:46.731Z,102015.92
2019-03-30T04:33:15.747Z,102011.31
2019-03-30T04:35:44.840Z,102012.01
2019-03-30T04:38:14.478Z,102004.47
2019-03-30T04:40:43.727Z,101993.16
2019-03-30T04:43:12.735Z,101997.74
2019-03-30T04:45:42.049Z,101994.71
2019-03-30T04:48:11.350Z,101990.00
2019-03-30T04:50:40.438Z,101990.66
2019-03-30T04:53:09.581Z,101986.05
2019-03-30T04:55:38.682Z,101987.75
2019-03-30T04:58:09.397Z,101987.23
2019-03-30T05:00:38.495Z,101983.70
2019-03-30T05:03:07.491Z,101985.72
2019-03-30T05:05:36.473Z,101985.32
2019-03-30T05:08:05.507Z,101983.89
2019-03-30T05:10:34.577Z,101987.03
2019-03-30T05:13:03.580Z,101980.69
2019-03-30T05:15:32.576Z,101976.41
2019-03-30T05:18:01.706Z,101978.66
2019-03-30T05:20:30.710Z,101971.61
2019-03-30T05:22:59.714Z,101969.10
2019-03-30T05:25:28.715Z,101966.89
2019-03-30T05:27:57.720Z,101968.07
2019-03-30T05:30:26.738Z,101969.31
2019-03-30T05:33:05.608Z,101967.61
2019-03-30T05:35:26.513Z,101972.00
2019-03-30T05:37:55.535Z,101962.94
2019-03-30T05:40:24.551Z,101969.44
2019-03-30T05:42:53.563Z,101965.61
2019-03-30T05:45:22.561Z,101966.17
2019-03-30T05:47:51.633Z,101964.19
2019-03-30T05:50:21.008Z,101966.95
2019-03-30T05:52:50.004Z,101964.25
2019-03-30T05:55:19.385Z,101960.59
2019-03-30T05:57:48.402Z,101960.45
2019-03-30T06:00:20.589Z,101968.80
2019-03-30T06:02:49.693Z,101971.94
2019-03-30T06:05:18.681Z,101969.36
2019-03-30T06:07:47.748Z,101967.48
2019-03-30T06:10:16.739Z,101974.58
2019-03-30T06:12:45.736Z,101968.84
2019-03-30T06:15:14.718Z,101968.21
2019-03-30T06:17:43.814Z,101972.06
2019-03-30T06:20:12.817Z,101968.31
2019-03-30T06:22:41.830Z,101964.97
2019-03-30T06:25:10.867Z,101964.58
2019-03-30T06:27:39.922Z,101959.14
2019-03-30T06:30:28.637Z,101959.92
2019-03-30T06:32:57.625Z,101953.80
2019-03-30T06:35:26.639Z,101960.60
2019-03-30T06:37:55.641Z,101956.66
2019-03-30T06:40:24.670Z,101950.55
2019-03-30T06:42:53.699Z,101954.80
2019-03-30T06:45:22.794Z,101953.42
2019-03-30T06:47:51.808Z,101958.72
2019-03-30T06:50:20.831Z,101960.20
2019-03-30T06:52:57.432Z,101954.66
2019-03-30T06:55:20.660Z,101954.91
2019-03-30T06:57:49.824Z,101959.02
2019-03-30T07:00:22.517Z,101959.16
2019-03-30T07:02:51.529Z,101862.92
2019-03-30T07:05:20.543Z,101961.73
2019-03-30T07:07:49.591Z,101956.85
2019-03-30T07:10:18.592Z,101954.50
2019-03-30T07:12:47.785Z,101957.89
2019-03-30T07:15:16.791Z,101958.46
2019-03-30T07:17:47.021Z,101951.06
2019-03-30T07:20:27.257Z,101948.71
2019-03-30T07:23:10.756Z,101936.55
2019-03-30T07:25:28.033Z,101942.33
2019-03-30T07:27:57.498Z,101941.09
2019-03-30T07:30:26.489Z,101936.38
2019-03-30T07:32:55.525Z,101944.30
2019-03-30T07:35:24.586Z,101947.48
2019-03-30T07:37:53.586Z,101933.17
2019-03-30T07:40:22.569Z,101937.96
2019-03-30T07:42:51.579Z,101936.20
2019-03-30T07:45:20.598Z,101935.63
2019-03-30T07:47:49.679Z,101931.28
2019-03-30T07:50:18.787Z,101937.27
2019-03-30T07:52:47.798Z,101930.45
2019-03-30T07:55:16.835Z,101935.20
2019-03-30T07:57:45.830Z,101926.03
2019-03-30T08:00:15.039Z,101926.20
2019-03-30T08:02:44.081Z,101917.80
2019-03-30T08:05:13.080Z,101913.70
2019-03-30T08:07:42.641Z,101912.66
2019-03-30T08:10:11.750Z,101907.15
2019-03-30T08:12:40.769Z,101909.14
2019-03-30T08:15:10.358Z,101907.08
2019-03-30T08:17:39.453Z,101908.25
2019-03-30T08:20:08.804Z,101902.12
2019-03-30T08:22:38.040Z,101903.59
2019-03-30T08:25:07.397Z,101896.41
2019-03-30T08:27:36.682Z,101892.97
2019-03-30T08:30:06.907Z,101886.12
2019-03-30T08:32:35.917Z,101885.98
2019-03-30T08:35:05.263Z,101881.66
2019-03-30T08:37:34.274Z,101883.91
2019-03-30T08:40:03.283Z,101882.66
2019-03-30T08:42:32.314Z,101880.59
2019-03-30T08:45:01.423Z,101867.97
2019-03-30T08:47:30.444Z,101875.31
2019-03-30T08:49:59.464Z,101871.54
2019-03-30T08:52:28.459Z,101876.02
2019-03-30T08:54:57.471Z,101872.34
2019-03-30T08:57:26.481Z,101870.67
2019-03-30T08:59:55.492Z,101865.23
2019-03-30T09:02:24.517Z,101857.72
2019-03-30T09:04:53.527Z,101858.38
2019-03-30T09:07:22.539Z,101850.84
2019-03-30T09:09:51.541Z,101854.66
2019-03-30T09:12:20.777Z,101847.43
2019-03-30T09:14:49.795Z,101848.09
2019-03-30T09:17:18.814Z,101850.32
2019-03-30T09:19:47.819Z,101844.00
2019-03-30T09:22:17.094Z,101832.14
2019-03-30T09:24:46.108Z,101840.86
2019-03-30T09:27:15.135Z,101837.95
2019-03-30T09:29:44.115Z,101837.45
2019-03-30T09:32:15.052Z,101836.02
2019-03-30T09:34:44.156Z,101842.03
2019-03-30T09:37:13.169Z,101828.20
2019-03-30T09:39:42.411Z,101835.36
2019-03-30T09:42:11.412Z,101834.48
2019-03-30T09:44:40.419Z,101827.41
2019-03-30T09:47:09.471Z,101831.72
2019-03-30T09:49:38.583Z,101831.14
2019-03-30T09:52:08.189Z,101825.39
2019-03-30T09:54:37.183Z,101820.33
2019-03-30T09:57:06.530Z,101818.83
2019-03-30T09:59:35.948Z,101817.08
2019-03-30T10:02:05.399Z,101824.16
2019-03-30T10:04:34.693Z,101814.86
2019-03-30T10:07:03.685Z,101810.41
2019-03-30T10:09:32.768Z,101804.84
2019-03-30T10:12:03.912Z,101801.36
2019-03-30T10:14:33.210Z,101800.53
2019-03-30T10:17:02.219Z,101797.20
2019-03-30T10:19:31.505Z,101795.09
2019-03-30T10:22:00.535Z,101789.02
2019-03-30T10:24:37.901Z,101785.12
2019-03-30T10:27:00.295Z,101791.62
2019-03-30T10:29:29.632Z,101780.19
2019-03-30T10:32:00.020Z,101777.80
2019-03-30T10:34:29.116Z,101787.20
2019-03-30T10:36:58.130Z,101779.77
2019-03-30T10:39:27.161Z,101779.07
2019-03-30T10:41:56.473Z,101784.09
2019-03-30T10:44:25.770Z,101772.34
2019-03-30T10:46:54.894Z,101776.48
2019-03-30T10:49:23.886Z,101774.90
2019-03-30T10:51:54.455Z,101764.80
2019-03-30T10:54:23.648Z,101771.53
2019-03-30T10:56:52.643Z,101762.07
2019-03-30T10:59:21.657Z,101766.91
2019-03-30T11:01:50.676Z,101758.03
2019-03-30T11:04:19.705Z,101756.00
2019-03-30T11:06:48.712Z,101750.69
2019-03-30T11:09:17.738Z,101757.14
2019-03-30T11:11:46.834Z,101743.54
2019-03-30T11:14:15.871Z,101747.78
2019-03-30T11:16:44.883Z,101746.30
2019-03-30T11:19:13.891Z,101748.17
2019-03-30T11:21:42.915Z,101745.87
2019-03-30T11:24:11.930Z,101739.54
2019-03-30T11:26:40.966Z,101740.80
2019-03-30T11:29:10.057Z,101728.67
2019-03-30T11:31:39.045Z,101735.61
2019-03-30T11:34:08.560Z,101737.69
2019-03-30T11:36:37.857Z,101734.30
2019-03-30T11:39:06.916Z,101728.13
2019-03-30T11:41:35.922Z,101720.02
2019-03-30T11:44:04.950Z,101714.73
2019-03-30T11:46:33.989Z,101723.36
2019-03-30T11:49:02.993Z,101707.38
2019-03-30T11:51:32.158Z,101704.55
2019-03-30T11:54:01.111Z,101697.42
2019-03-30T11:56:30.177Z,101700.72
2019-03-30T11:58:59.211Z,101691.02
2019-03-30T12:01:28.231Z,101692.22
2019-03-30T12:03:57.245Z,101686.20
2019-03-30T12:06:26.503Z,101681.30
2019-03-30T12:08:55.862Z,101675.09
2019-03-30T12:11:24.876Z,101673.74
2019-03-30T12:13:53.903Z,101670.81
2019-03-30T12:16:22.919Z,101667.42
2019-03-30T12:18:51.943Z,101661.97
2019-03-30T12:21:20.963Z,101663.98
2019-03-30T12:23:49.984Z,101674.46
2019-03-30T12:26:19.234Z,101668.66
2019-03-30T12:28:48.271Z,101661.67
2019-03-30T12:31:17.291Z,101654.05
2019-03-30T12:33:46.331Z,101656.48
2019-03-30T12:36:15.626Z,101656.87
2019-03-30T12:38:44.648Z,101651.27
2019-03-30T12:41:13.685Z,101650.75
2019-03-30T12:43:43.151Z,101569.77
2019-03-30T12:46:12.158Z,101630.45
2019-03-30T12:48:41.204Z,101630.02
2019-03-30T12:51:10.190Z,101631.36
2019-03-30T12:53:49.455Z,101642.11
2019-03-30T12:56:09.920Z,101631.55
2019-03-30T12:58:39.216Z,101631.16
2019-03-30T13:01:08.291Z,101628.69
2019-03-30T13:03:37.402Z,101618.12
2019-03-30T13:06:06.419Z,101609.72
2019-03-30T13:08:35.472Z,101614.72
2019-03-30T13:11:04.518Z,101618.14
2019-03-30T13:13:33.547Z,101615.25
2019-03-30T13:16:02.571Z,101611.25
2019-03-30T13:18:31.662Z,101609.67
2019-03-30T13:21:00.679Z,101607.52
2019-03-30T13:23:29.703Z,101600.72
2019-03-30T13:26:03.989Z,101587.50
2019-03-30T13:28:29.426Z,101589.66
2019-03-30T13:30:58.420Z,101587.98
2019-03-30T13:33:27.456Z,101581.27
2019-03-30T13:35:56.466Z,101579.89
2019-03-30T13:38:25.948Z,101573.52
2019-03-30T13:40:55.053Z,101572.81
2019-03-30T13:43:24.067Z,101575.03
2019-03-30T13:45:53.070Z,101575.09
2019-03-30T13:48:22.112Z,101575.09
2019-03-30T13:50:51.128Z,101573.86
2019-03-30T13:53:20.139Z,101573.36
2019-03-30T13:55:49.175Z,101566.88
2019-03-30T13:58:18.246Z,101576.02
2019-03-30T14:00:47.262Z,101574.73
2019-03-30T14:03:16.291Z,101570.80
2019-03-30T14:05:45.643Z,101573.04
2019-03-30T14:08:14.948Z,101561.66
2019-03-30T14:10:44.066Z,101567.60
2019-03-30T14:13:13.094Z,101560.68
2019-03-30T14:15:42.100Z,101551.41
2019-03-30T14:18:11.205Z,101561.27
2019-03-30T14:20:40.185Z,101562.70
2019-03-30T14:23:09.207Z,101555.41
2019-03-30T14:25:38.242Z,101560.11
2019-03-30T14:28:07.268Z,101557.75
2019-03-30T14:30:36.258Z,101553.55
2019-03-30T14:33:05.269Z,101569.28
2019-03-30T14:35:34.269Z,101540.91
2019-03-30T14:38:03.363Z,101539.18
2019-03-30T14:40:32.381Z,101532.08
2019-03-30T14:43:01.650Z,101531.94
2019-03-30T14:45:30.636Z,101526.41
2019-03-30T14:47:59.935Z,101532.37
2019-03-30T14:50:28.939Z,101531.00
2019-03-30T14:52:58.248Z,101525.56
2019-03-30T14:55:27.213Z,101518.13
2019-03-30T14:57:56.469Z,101515.84
2019-03-30T15:00:25.585Z,101512.50
2019-03-30T15:02:54.757Z,101510.45
2019-03-30T15:05:23.701Z,101509.47
2019-03-30T15:07:53.003Z,101507.11
2019-03-30T15:10:22.015Z,101508.61
2019-03-30T15:12:51.020Z,101503.52
2019-03-30T15:15:20.033Z,101505.09
2019-03-30T15:17:49.042Z,101500.55
2019-03-30T15:20:18.324Z,101498.82
2019-03-30T15:22:47.710Z,101497.09
2019-03-30T15:25:16.982Z,101498.81
2019-03-30T15:27:46.003Z,101497.60
2019-03-30T15:30:16.056Z,101485.16
2019-03-30T15:32:45.074Z,101488.58
2019-03-30T15:35:14.236Z,101493.06
2019-03-30T15:37:43.249Z,101488.45
2019-03-30T15:40:12.342Z,101488.45
2019-03-30T15:42:41.372Z,101484.67
2019-03-30T15:45:10.489Z,101495.27
2019-03-30T15:47:39.494Z,101493.58
2019-03-30T15:50:08.598Z,101490.41
2019-03-30T15:52:37.613Z,101486.61
2019-03-30T15:55:06.688Z,101482.92
2019-03-30T15:57:35.701Z,101484.73
2019-03-30T16:00:07.047Z,101487.44
2019-03-30T16:02:36.301Z,101478.41
2019-03-30T16:05:05.701Z,101485.16
2019-03-30T16:07:34.731Z,101482.47
2019-03-30T16:10:04.150Z,101480.28
2019-03-30T16:12:33.195Z,101473.44
2019-03-30T16:15:02.222Z,101472.14
2019-03-30T16:17:31.573Z,101468.59
2019-03-30T16:20:00.578Z,101474.95
2019-03-30T16:22:29.868Z,101476.20
2019-03-30T16:24:58.898Z,101475.75
2019-03-30T16:27:29.403Z,101480.54
2019-03-30T16:29:59.145Z,101477.37
2019-03-30T16:32:28.159Z,101486.62
2019-03-30T16:34:57.180Z,101476.63
2019-03-30T16:37:27.005Z,101481.27
2019-03-30T16:39:56.330Z,101478.13
2019-03-30T16:42:25.347Z,101472.58
2019-03-30T16:44:54.463Z,101474.48
2019-03-30T16:47:23.474Z,101476.91
2019-03-30T16:49:52.820Z,101475.11
2019-03-30T16:52:22.236Z,101474.80
2019-03-30T16:54:51.326Z,101470.41
2019-03-30T16:57:20.312Z,101474.69
2019-03-30T16:59:49.419Z,101471.52
2019-03-30T17:02:18.452Z,101469.20
2019-03-30T17:04:47.448Z,101475.40
2019-03-30T17:07:16.473Z,101463.23
2019-03-30T17:09:45.555Z,101467.83
2019-03-30T17:12:14.691Z,101464.73
2019-03-30T17:14:43.604Z,101471.78
2019-03-30T17:17:13.033Z,101468.83
2019-03-30T17:19:42.045Z,101471.17
2019-03-30T17:22:11.299Z,101472.06
2019-03-30T17:24:40.406Z,101480.19
2019-03-30T17:27:09.506Z,101479.96
2019-03-30T17:29:38.592Z,101482.42
2019-03-30T17:32:07.774Z,101483.12
2019-03-30T17:34:36.849Z,101484.02
2019-03-30T17:37:05.956Z,101487.02
2019-03-30T17:39:35.038Z,101489.78
2019-03-30T17:42:04.072Z,101505.11
2019-03-30T17:44:33.164Z,101513.23
2019-03-30T17:47:02.265Z,101509.34
2019-03-30T17:49:31.293Z,101511.02
2019-03-30T17:52:00.298Z,101518.41
2019-03-30T17:54:29.294Z,101520.08
2019-03-30T17:56:58.303Z,101513.35
2019-03-30T17:59:27.394Z,101524.06
2019-03-30T18:01:56.747Z,101523.11
2019-03-30T18:04:25.789Z,101521.33
2019-03-30T18:06:54.825Z,101521.96
2019-03-30T18:09:23.824Z,101528.64
2019-03-30T18:11:52.836Z,101526.24
2019-03-30T18:14:21.832Z,101530.34
2019-03-30T18:16:50.827Z,101528.86
2019-03-30T18:19:19.860Z,101530.41
2019-03-30T18:21:48.943Z,101533.08
2019-03-30T18:24:18.027Z,101546.16
2019-03-30T18:26:46.998Z,101549.08
2019-03-30T18:29:16.027Z,101547.24
2019-03-30T18:31:45.023Z,101546.89
2019-03-30T18:34:14.129Z,101551.47
2019-03-30T18:36:43.500Z,101560.62
2019-03-30T18:39:12.547Z,101562.29
2019-03-30T18:41:41.530Z,101558.05
2019-03-30T18:44:10.554Z,101554.78
2019-03-30T18:46:39.621Z,101567.36
2019-03-30T18:49:08.657Z,101561.98
2019-03-30T18:51:37.739Z,101565.56
2019-03-30T18:54:06.809Z,101565.99
2019-03-30T18:56:36.127Z,101564.11
2019-03-30T18:59:05.130Z,101572.20
2019-03-30T19:01:34.480Z,101575.05
2019-03-30T19:04:03.814Z,101589.13
2019-03-30T19:06:32.809Z,101578.60
2019-03-30T19:09:01.806Z,101581.42
2019-03-30T19:11:31.079Z,101573.50
2019-03-30T19:14:00.107Z,101579.44
2019-03-30T19:16:29.102Z,101589.33
2019-03-30T19:18:58.175Z,101591.81
2019-03-30T19:21:27.484Z,101600.38
2019-03-30T19:23:56.510Z,101605.52
2019-03-30T19:26:25.537Z,101615.02
2019-03-30T19:28:56.618Z,101618.52
2019-03-30T19:31:25.712Z,101609.65
2019-03-30T19:33:54.822Z,101618.43
2019-03-30T19:36:24.113Z,101615.14
2019-03-30T19:38:53.269Z,101612.53
2019-03-30T19:41:22.350Z,101621.55
2019-03-30T19:43:51.707Z,101621.09
2019-03-30T19:46:20.743Z,101621.75
2019-03-30T19:48:49.764Z,101624.24
2019-03-30T19:51:18.831Z,101622.23
2019-03-30T19:53:48.072Z,101618.15
2019-03-30T19:56:17.393Z,101622.27
2019-03-30T19:58:46.453Z,101620.47
2019-03-30T20:01:15.513Z,101620.05
2019-03-30T20:03:44.553Z,101621.11
2019-03-30T20:06:13.574Z,101626.30
2019-03-30T20:08:42.596Z,101629.22
2019-03-30T20:11:11.601Z,101618.97
2019-03-30T20:13:40.618Z,101624.41
2019-03-30T20:16:09.633Z,101620.05
2019-03-30T20:18:38.678Z,101620.11
2019-03-30T20:21:07.934Z,101618.14
2019-03-30T20:23:37.034Z,101631.80
2019-03-30T20:26:06.034Z,101631.45
2019-03-30T20:28:35.371Z,101626.34
2019-03-30T20:31:04.406Z,101622.52
2019-03-30T20:33:33.435Z,101625.00
2019-03-30T20:36:02.442Z,101631.45
2019-03-30T20:38:31.458Z,101631.28
2019-03-30T20:41:00.539Z,101630.94
2019-03-30T20:43:29.811Z,101633.20
2019-03-30T20:45:58.822Z,101624.09
2019-03-30T20:48:28.103Z,101620.80
2019-03-30T20:50:57.226Z,101627.23
2019-03-30T20:53:26.238Z,101628.59
2019-03-30T20:55:55.394Z,101636.44
2019-03-30T20:58:24.691Z,101634.68
2019-03-30T21:00:53.689Z,101642.28
2019-03-30T21:03:23.039Z,101639.61
2019-03-30T21:05:52.031Z,101647.56
2019-03-30T21:08:21.085Z,101640.16
2019-03-30T21:10:50.102Z,101643.58
2019-03-30T21:13:19.456Z,101646.14
2019-03-30T21:15:48.563Z,101638.54
2019-03-30T21:18:17.722Z,101494.25
2019-03-30T21:20:46.812Z,101641.36
2019-03-30T21:23:15.879Z,101642.22
2019-03-30T21:25:44.894Z,101643.37
2019-03-30T21:28:13.939Z,101642.52
2019-03-30T21:30:43.026Z,101640.86
2019-03-30T21:33:12.294Z,101651.92
2019-03-30T21:35:41.591Z,101651.65
2019-03-30T21:38:10.578Z,101655.14
2019-03-30T21:40:39.603Z,101653.63
2019-03-30T21:43:08.616Z,101653.27
2019-03-30T21:45:37.645Z,101655.02
2019-03-30T21:48:06.666Z,101655.87
2019-03-30T21:50:35.709Z,101660.13
2019-03-30T21:53:04.729Z,101666.66
2019-03-30T21:55:33.987Z,101668.33
2019-03-30T21:58:03.102Z,101670.72
2019-03-30T22:00:36.849Z,101671.86
2019-03-30T22:03:06.125Z,101672.52
2019-03-30T22:05:35.566Z,101666.14
2019-03-30T22:08:05.413Z,101661.64
2019-03-30T22:10:34.593Z,101668.27
2019-03-30T22:13:03.603Z,101664.02
2019-03-30T22:15:32.640Z,101664.36
2019-03-30T22:18:01.731Z,101674.20
2019-03-30T22:20:30.772Z,101674.84
2019-03-30T22:22:59.808Z,101673.85
2019-03-30T22:25:28.888Z,101675.56
2019-03-30T22:27:57.928Z,101681.34
2019-03-30T22:30:27.242Z,101587.31
2019-03-30T22:32:56.466Z,101681.70
2019-03-30T22:35:25.503Z,101685.45
2019-03-30T22:37:54.523Z,101681.73
2019-03-30T22:40:23.563Z,101687.50
2019-03-30T22:42:52.584Z,101682.25
2019-03-30T22:45:21.632Z,101683.11
2019-03-30T22:47:50.660Z,101689.03
2019-03-30T22:50:19.689Z,101685.17
2019-03-30T22:52:48.713Z,101681.10
2019-03-30T22:55:17.880Z,101690.92
2019-03-30T22:57:46.899Z,101692.09
2019-03-30T23:00:39.081Z,101686.17
2019-03-30T23:03:07.028Z,101688.20
2019-03-30T23:05:36.033Z,101684.98
2019-03-30T23:08:05.059Z,101683.45
2019-03-30T23:10:34.114Z,101683.80
2019-03-30T23:13:03.170Z,101679.39
2019-03-30T23:15:32.160Z,101689.56
2019-03-30T23:18:01.161Z,101686.67
2019-03-30T23:20:30.456Z,101688.71
2019-03-30T23:22:59.518Z,101685.50
2019-03-30T23:25:28.546Z,101695.69
2019-03-30T23:27:57.539Z,101703.14
2019-03-30T23:30:27.563Z,101701.95
2019-03-30T23:32:56.562Z,101706.86
2019-03-30T23:35:25.538Z,101708.88
2019-03-30T23:37:54.612Z,101698.91
2019-03-30T23:40:23.662Z,101703.45
2019-03-30T23:42:52.682Z,101707.87
2019-03-30T23:45:21.691Z,101710.91
2019-03-30T23:47:50.708Z,101708.86
2019-03-30T23:50:19.708Z,101705.84
2019-03-30T23:52:48.748Z,101708.55
2019-03-30T23:55:17.778Z,101714.28
2019-03-30T23:57:46.776Z,101703.12
